Time;durP1;ratioP1;P1;durP2;ratioP2;P2;SDS_P1;SDS_P2;PMS_P1;PMS_P2;Temp;Humidity;BMP_temperature;BMP_pressure;BME280_temperature;BME280_humidity;BME280_pressure;Samples;Min_cycle;Max_cycle;Signal;HPM_P1;HPM_P2
2024/01/10 00:01:08;;;;;;;16.87;9.87;;;;;;;-4.91;62.93;101392.44;2561911;28;20329;-81
2024/01/10 00:02:22;;;;;;;18.97;9.40;;;;;;;-4.90;62.83;101388.25;2559276;28;20048;-82
2024/01/10 00:03:36;;;;;;;15.77;10.67;;;;;;;-4.90;62.81;101389.16;2566229;28;20309;-81
2024/01/10 00:04:50;;;;;;;20.93;12.43;;;;;;;-4.88;63.01;101389.22;2565926;28;20048;-80
2024/01/10 00:06:05;;;;;;;21.47;10.17;;;;;;;-4.88;62.94;101382.50;2565788;28;20286;-79
2024/01/10 00:07:19;;;;;;;16.50;8.83;;;;;;;-4.88;63.07;101379.94;2566422;28;20493;-80
2024/01/10 00:08:33;;;;;;;21.17;10.70;;;;;;;-4.86;63.11;101378.34;2565619;28;20330;-82
2024/01/10 00:09:47;;;;;;;17.27;10.83;;;;;;;-4.85;62.85;101382.69;2558726;28;20040;-80
2024/01/10 00:11:01;;;;;;;16.70;10.30;;;;;;;-4.84;63.09;101381.00;2562130;28;20306;-81
2024/01/10 00:12:14;;;;;;;18.87;11.33;;;;;;;-4.83;62.88;101378.59;2563262;28;20067;-80
2024/01/10 00:13:29;;;;;;;21.63;13.90;;;;;;;-4.80;62.87;101379.53;2566936;28;20271;-81
2024/01/10 00:14:44;;;;;;;18.13;9.93;;;;;;;-4.80;63.03;101379.53;2564867;28;20051;-81
2024/01/10 00:15:58;;;;;;;18.63;10.70;;;;;;;-4.80;63.07;101380.44;2557919;28;20310;-81
2024/01/10 00:17:12;;;;;;;21.23;11.87;;;;;;;-4.79;63.07;101381.31;2561728;28;20704;-81
2024/01/10 00:18:26;;;;;;;21.67;10.93;;;;;;;-4.78;62.69;101372.88;2566294;28;20306;-80
2024/01/10 00:19:40;;;;;;;16.63;10.70;;;;;;;-4.77;62.92;101370.44;2558549;28;20052;-82
2024/01/10 00:20:54;;;;;;;19.70;11.67;;;;;;;-4.75;62.69;101373.06;2563864;28;20862;-80
2024/01/10 00:22:08;;;;;;;17.87;11.00;;;;;;;-4.75;62.57;101375.63;2561754;28;20167;-81
2024/01/10 00:23:22;;;;;;;17.97;11.27;;;;;;;-4.73;62.70;101379.16;2567912;28;20310;-81
2024/01/10 00:24:36;;;;;;;22.87;12.83;;;;;;;-4.72;62.54;101384.38;2566983;28;20048;-80
2024/01/10 00:25:50;;;;;;;16.77;10.30;;;;;;;-4.72;62.52;101373.31;2567285;28;20289;-80
2024/01/10 00:27:05;;;;;;;18.90;12.07;;;;;;;-4.71;62.61;101375.06;2566765;28;20048;-81
2024/01/10 00:28:19;;;;;;;19.57;12.97;;;;;;;-4.71;62.75;101373.38;2566275;28;20434;-81
2024/01/10 00:29:33;;;;;;;22.47;11.80;;;;;;;-4.68;62.45;101380.34;2565781;28;20274;-81
2024/01/10 00:30:49;;;;;;;18.10;12.37;;;;;;;-4.68;62.45;101375.25;2566276;28;20313;-78
2024/01/10 00:32:03;;;;;;;21.00;12.70;;;;;;;-4.68;62.24;101370.16;2559783;28;20504;-80
2024/01/10 00:33:18;;;;;;;19.10;10.83;;;;;;;-4.68;62.71;101375.25;2562561;28;20374;-82
2024/01/10 00:34:31;;;;;;;16.87;10.33;;;;;;;-4.68;62.58;101370.16;2559265;28;20121;-79
2024/01/10 00:35:45;;;;;;;19.50;11.93;;;;;;;-4.68;62.43;101371.03;2565059;28;20974;-81
2024/01/10 00:36:59;;;;;;;18.67;11.17;;;;;;;-4.67;62.52;101370.25;2564972;28;20059;-82
2024/01/10 00:38:14;;;;;;;20.43;10.93;;;;;;;-4.67;62.75;101372.81;2563967;28;20305;-82
2024/01/10 00:39:27;;;;;;;16.40;9.27;;;;;;;-4.67;62.23;101371.94;2564721;28;20126;-78
2024/01/10 00:40:42;;;;;;;17.27;11.67;;;;;;;-4.67;62.66;101369.38;2564537;28;20809;-80
2024/01/10 00:41:55;;;;;;;19.47;13.10;;;;;;;-4.67;62.61;101364.28;2564666;28;20040;-82
2024/01/10 00:43:09;;;;;;;17.97;11.23;;;;;;;-4.67;62.42;101360.06;2564013;28;20837;-80
2024/01/10 00:44:23;;;;;;;19.10;10.90;;;;;;;-4.65;61.99;101362.69;2558427;28;20079;-81
2024/01/10 00:45:38;;;;;;;16.87;11.50;;;;;;;-4.64;62.43;101361.94;2565307;28;20315;-82
2024/01/10 00:46:53;;;;;;;25.00;12.40;;;;;;;-4.64;62.00;101362.81;2566739;28;20044;-81
2024/01/10 00:48:08;;;;;;;21.53;12.30;;;;;;;-4.61;62.27;101364.66;2560994;28;20302;-81
2024/01/10 00:49:21;;;;;;;22.87;10.97;;;;;;;-4.61;62.36;101364.66;2564286;28;20278;-81
2024/01/10 00:50:36;;;;;;;14.27;8.73;;;;;;;-4.60;62.09;101366.41;2566589;28;20390;-81
2024/01/10 00:51:49;;;;;;;19.97;10.90;;;;;;;-4.60;61.96;101362.19;2566912;28;20130;-81
2024/01/10 00:53:04;;;;;;;20.03;11.13;;;;;;;-4.58;61.76;101366.53;2566061;28;20466;-81
2024/01/10 00:54:17;;;;;;;18.37;11.10;;;;;;;-4.58;61.83;101364.84;2567558;28;20043;-81
2024/01/10 00:55:32;;;;;;;21.93;12.63;;;;;;;-4.58;62.14;101366.53;2568852;28;20309;-82
2024/01/10 00:56:45;;;;;;;19.37;11.50;;;;;;;-4.58;61.66;101372.50;2568235;28;20059;-81
2024/01/10 00:58:00;;;;;;;17.47;11.23;;;;;;;-4.57;62.03;101366.59;2557796;28;20287;-82
2024/01/10 00:59:13;;;;;;;18.43;10.63;;;;;;;-4.55;62.09;101376.91;2563005;28;20493;-81
2024/01/10 01:00:27;;;;;;;18.20;11.33;;;;;;;-4.55;61.70;101367.59;2567042;28;20312;-82
2024/01/10 01:01:41;;;;;;;21.87;12.10;;;;;;;-4.54;61.86;101369.38;2556697;28;20037;-82
2024/01/10 01:02:57;;;;;;;18.03;11.10;;;;;;;-4.54;61.86;101366.84;2562109;28;20302;-82
2024/01/10 01:04:10;;;;;;;13.17;8.37;;;;;;;-4.52;61.65;101370.34;2561863;28;20044;-81
2024/01/10 01:05:24;;;;;;;21.03;13.97;;;;;;;-4.52;61.91;101372.00;2567744;28;20694;-80
2024/01/10 01:06:38;;;;;;;18.43;10.50;;;;;;;-4.52;61.65;101359.25;2568910;28;20452;-79
2024/01/10 01:07:52;;;;;;;22.07;11.07;;;;;;;-4.52;61.46;101362.69;2568129;28;20306;-81
2024/01/10 01:09:06;;;;;;;19.43;11.30;;;;;;;-4.51;62.01;101359.38;2566856;28;20052;-81
2024/01/10 01:10:20;;;;;;;16.50;10.20;;;;;;;-4.50;61.43;101358.59;2568202;28;20299;-81
2024/01/10 01:11:34;;;;;;;20.33;12.33;;;;;;;-4.49;61.30;101367.09;2532556;28;20081;-79
2024/01/10 01:12:49;;;;;;;18.77;9.97;;;;;;;-4.49;61.92;101360.38;2539135;28;20308;-81
2024/01/10 01:14:03;;;;;;;18.10;11.87;;;;;;;-4.50;61.53;101356.03;2565085;28;20054;-79
2024/01/10 01:15:17;;;;;;;18.63;9.03;;;;;;;-4.48;61.64;101358.69;2564102;28;20302;-79
2024/01/10 01:16:30;;;;;;;21.97;11.57;;;;;;;-4.49;61.72;101360.38;2573921;28;20301;-79
2024/01/10 01:17:45;;;;;;;22.80;12.40;;;;;;;-4.49;61.75;101360.38;2560823;28;20309;-80
2024/01/10 01:19:00;;;;;;;17.17;12.10;;;;;;;-4.47;61.79;101355.34;2569736;28;20530;-79
2024/01/10 01:20:14;;;;;;;12.90;7.97;;;;;;;-4.48;61.57;101354.47;2557294;28;20867;-80
2024/01/10 01:21:28;;;;;;;19.33;13.03;;;;;;;-4.46;61.92;101352.03;2557075;28;20279;-80
2024/01/10 01:22:42;;;;;;;18.93;10.97;;;;;;;-4.47;61.54;101366.41;2556900;28;20342;-81
2024/01/10 01:23:56;;;;;;;20.67;12.93;;;;;;;-4.47;62.03;101361.31;2564942;28;20044;-80
2024/01/10 01:25:10;;;;;;;26.90;13.83;;;;;;;-4.47;61.58;101366.41;2566034;28;20779;-80
2024/01/10 01:26:24;;;;;;;22.80;12.47;;;;;;;-4.48;61.67;101359.56;2572395;28;20047;-81
2024/01/10 01:27:38;;;;;;;17.17;11.17;;;;;;;-4.48;61.90;101364.66;2577360;28;20800;-81
2024/01/10 01:28:51;;;;;;;17.77;11.27;;;;;;;-4.48;61.94;101361.25;2578394;28;20488;-81
2024/01/10 01:30:07;;;;;;;22.73;13.47;;;;;;;-4.49;62.19;101369.66;2577390;28;20288;-78
2024/01/10 01:31:21;;;;;;;21.87;12.17;;;;;;;-4.50;61.82;101360.25;2565417;28;20040;-79
2024/01/10 01:32:35;;;;;;;17.47;11.10;;;;;;;-4.51;62.38;101368.69;2575749;28;20301;-81
2024/01/10 01:33:49;;;;;;;18.27;10.30;;;;;;;-4.53;62.21;101368.59;2573834;28;20448;-79
2024/01/10 01:35:05;;;;;;;24.70;11.90;;;;;;;-4.53;62.13;101378.78;2562598;28;20310;-81
2024/01/10 01:36:20;;;;;;;21.07;12.10;;;;;;;-4.55;62.02;101370.16;2556352;28;20090;-79
2024/01/10 01:37:34;;;;;;;20.73;11.07;;;;;;;-4.55;62.34;101367.59;2555996;28;20290;-80
2024/01/10 01:38:48;;;;;;;22.43;11.87;;;;;;;-4.56;62.06;101363.28;2560286;28;20721;-79
2024/01/10 01:40:01;;;;;;;18.17;11.07;;;;;;;-4.57;62.31;101369.16;2571477;28;20056;-79
2024/01/10 01:41:17;;;;;;;16.63;10.40;;;;;;;-4.58;62.19;101366.53;2564376;28;20309;-78
2024/01/10 01:42:30;;;;;;;21.40;11.00;;;;;;;-4.60;62.24;101372.38;2573615;28;20072;-81
2024/01/10 01:43:45;;;;;;;18.53;11.47;;;;;;;-4.60;62.34;101362.19;2558257;28;20302;-80
2024/01/10 01:44:59;;;;;;;20.10;12.13;;;;;;;-4.59;62.41;101363.09;2566195;28;20055;-81
2024/01/10 01:46:13;;;;;;;18.47;11.37;;;;;;;-4.59;62.26;101370.75;2566859;28;20306;-81
2024/01/10 01:47:27;;;;;;;20.00;12.00;;;;;;;-4.60;62.38;101361.31;2567173;28;20048;-79
2024/01/10 01:48:42;;;;;;;14.73;10.30;;;;;;;-4.60;62.01;101361.31;2566735;28;20349;-80
2024/01/10 01:49:56;;;;;;;17.57;12.87;;;;;;;-4.60;62.37;101359.66;2566640;28;20044;-80
2024/01/10 01:51:13;;;;;;;19.13;13.37;;;;;;;-4.59;62.40;101368.19;2567184;28;20313;-79
2024/01/10 01:52:29;;;;;;;17.47;11.37;;;;;;;-4.58;62.26;101361.44;2567816;28;20086;-81
2024/01/10 01:53:45;;;;;;;17.50;11.23;;;;;;;-4.58;62.45;101357.22;2567019;28;20283;-81
2024/01/10 01:54:59;;;;;;;20.43;12.17;;;;;;;-4.58;62.40;101356.34;2567652;28;20309;-81
2024/01/10 01:56:14;;;;;;;19.57;10.77;;;;;;;-4.58;61.92;101357.22;2561030;28;20313;-80
2024/01/10 01:57:28;;;;;;;18.77;12.00;;;;;;;-4.57;62.09;101351.31;2555175;28;20083;-82
2024/01/10 01:58:44;;;;;;;17.90;11.67;;;;;;;-4.57;61.92;101351.31;2565176;28;20655;-81
2024/01/10 01:59:57;;;;;;;21.77;12.07;;;;;;;-4.57;62.24;101353.88;2566511;28;20048;-82
2024/01/10 02:01:12;;;;;;;21.70;11.20;;;;;;;-4.58;62.22;101347.03;2566441;28;20634;-82
2024/01/10 02:02:27;;;;;;;21.83;12.63;;;;;;;-4.60;61.80;101348.59;2558663;28;20048;-82
2024/01/10 02:03:41;;;;;;;18.77;9.90;;;;;;;-4.58;61.81;101354.66;2557048;28;20307;-83
2024/01/10 02:04:55;;;;;;;23.67;12.03;;;;;;;-4.58;62.14;101348.69;2556679;28;20310;-82
2024/01/10 02:06:09;;;;;;;23.53;10.97;;;;;;;-4.57;61.69;101343.69;2555983;28;20689;-81
2024/01/10 02:07:24;;;;;;;16.90;13.00;;;;;;;-4.57;62.00;101343.69;2557195;28;20071;-83
2024/01/10 02:08:39;;;;;;;19.47;12.83;;;;;;;-4.56;61.74;101345.47;2557239;28;20389;-82
2024/01/10 02:09:52;;;;;;;22.97;10.93;;;;;;;-4.56;61.70;101350.56;2556303;28;20297;-82
2024/01/10 02:11:07;;;;;;;22.43;10.73;;;;;;;-4.56;62.01;101342.91;2565949;28;20305;-82
2024/01/10 02:12:21;;;;;;;16.20;10.10;;;;;;;-4.56;61.69;101335.28;2563429;28;20727;-82
2024/01/10 02:13:35;;;;;;;18.93;12.40;;;;;;;-4.56;61.82;101337.81;2556155;28;20283;-83
2024/01/10 02:14:48;;;;;;;17.63;11.70;;;;;;;-4.55;61.54;101339.56;2573861;28;20047;-82
2024/01/10 02:16:05;;;;;;;20.27;12.53;;;;;;;-4.54;61.52;101341.34;2562570;28;20309;-82
2024/01/10 02:17:18;;;;;;;16.30;10.43;;;;;;;-4.55;61.53;101342.13;2555041;28;20501;-82
2024/01/10 02:18:34;;;;;;;18.37;11.17;;;;;;;-4.54;61.71;101343.00;2571414;28;20302;-83
2024/01/10 02:19:48;;;;;;;20.27;12.27;;;;;;;-4.53;61.85;101339.69;2565806;28;20144;-82
2024/01/10 02:21:02;;;;;;;19.30;11.37;;;;;;;-4.53;61.62;101340.56;2561580;28;20337;-83
2024/01/10 02:22:16;;;;;;;21.50;12.30;;;;;;;-4.53;61.80;101338.00;2567660;28;20047;-82
2024/01/10 02:23:31;;;;;;;20.73;12.90;;;;;;;-4.52;61.57;101338.88;2561259;28;20336;-83
2024/01/10 02:24:45;;;;;;;20.90;11.50;;;;;;;-4.50;61.98;101342.41;2555941;28;20048;-82
2024/01/10 02:26:01;;;;;;;26.43;12.67;;;;;;;-4.52;61.82;101334.66;2562679;28;20640;-82
2024/01/10 02:27:14;;;;;;;22.03;10.07;;;;;;;-4.49;61.92;101333.97;2564774;28;20054;-83
2024/01/10 02:28:27;;;;;;;19.57;11.13;;;;;;;-4.50;61.77;101338.19;2555324;28;20417;-83
2024/01/10 02:29:42;;;;;;;25.50;12.07;;;;;;;-4.49;61.55;101334.88;2555368;28;20044;-83
2024/01/10 02:30:56;;;;;;;20.70;12.50;;;;;;;-4.48;61.88;101330.66;2561804;28;20044;-83
2024/01/10 02:32:10;;;;;;;17.40;11.90;;;;;;;-4.48;62.00;101336.63;2566207;28;20336;-83
2024/01/10 02:33:24;;;;;;;21.03;11.23;;;;;;;-4.46;61.87;101334.19;2554832;28;20305;-83
2024/01/10 02:34:38;;;;;;;18.57;12.03;;;;;;;-4.46;61.54;101335.06;2557020;28;20309;-83
2024/01/10 02:35:52;;;;;;;19.27;13.23;;;;;;;-4.44;61.83;101340.25;2570869;28;20054;-82
2024/01/10 02:37:06;;;;;;;21.30;11.70;;;;;;;-4.44;62.03;101340.25;2555270;28;20306;-83
2024/01/10 02:38:23;;;;;;;17.87;10.87;;;;;;;-4.44;61.98;101336.06;2555282;28;20520;-83
2024/01/10 02:39:37;;;;;;;22.17;11.63;;;;;;;-4.42;62.01;101337.00;2572843;28;20301;-83
2024/01/10 02:40:51;;;;;;;21.40;12.03;;;;;;;-4.41;61.75;101336.25;2560160;28;20644;-83
2024/01/10 02:42:06;;;;;;;21.93;11.23;;;;;;;-4.41;61.86;101336.25;2568126;28;20294;-83
2024/01/10 02:43:20;;;;;;;21.73;11.87;;;;;;;-4.40;61.48;101338.00;2555744;28;20044;-83
2024/01/10 02:44:34;;;;;;;20.97;14.30;;;;;;;-4.40;61.82;101332.91;2555667;28;20294;-83
2024/01/10 02:45:48;;;;;;;21.70;12.37;;;;;;;-4.39;61.73;101319.38;2555432;28;20504;-81
2024/01/10 02:47:02;;;;;;;21.30;12.03;;;;;;;-4.37;61.49;101327.09;2555283;28;20310;-82
2024/01/10 02:48:16;;;;;;;21.97;11.40;;;;;;;-4.38;61.59;101321.13;2555565;28;20044;-81
2024/01/10 02:49:30;;;;;;;24.13;13.00;;;;;;;-4.37;61.92;101332.22;2555445;28;20301;-82
2024/01/10 02:50:43;;;;;;;22.47;11.97;;;;;;;-4.37;61.47;101324.56;2572413;28;20481;-82
2024/01/10 02:51:58;;;;;;;18.60;12.10;;;;;;;-4.36;61.76;101317.78;2555305;28;20313;-83
2024/01/10 02:53:12;;;;;;;21.63;11.63;;;;;;;-4.35;61.48;101322.13;2555046;28;20048;-82
2024/01/10 02:54:26;;;;;;;18.53;11.40;;;;;;;-4.36;61.12;101322.88;2555462;28;20318;-83
2024/01/10 02:55:40;;;;;;;19.77;10.90;;;;;;;-4.36;61.18;101323.78;2556578;28;20375;-81
2024/01/10 02:56:54;;;;;;;20.17;12.43;;;;;;;-4.34;61.38;101326.41;2570534;28;20307;-83
2024/01/10 02:58:09;;;;;;;22.47;12.30;;;;;;;-4.34;61.29;101326.41;2555432;28;20478;-83
2024/01/10 02:59:23;;;;;;;32.63;11.27;;;;;;;-4.34;61.28;101324.75;2555402;28;20746;-82
2024/01/10 03:00:37;;;;;;;17.57;11.13;;;;;;;-4.33;61.34;101330.75;2555509;28;20303;-82
2024/01/10 03:01:51;;;;;;;15.67;9.63;;;;;;;-4.34;61.07;101326.41;2555041;28;20289;-82
2024/01/10 03:03:05;;;;;;;20.10;12.60;;;;;;;-4.35;61.35;101324.66;2556352;28;20040;-81
2024/01/10 03:04:19;;;;;;;14.47;8.70;;;;;;;-4.35;61.24;101320.44;2555520;28;20469;-81
2024/01/10 03:05:33;;;;;;;24.33;11.97;;;;;;;-4.35;61.28;101322.13;2555732;28;20643;-82
2024/01/10 03:06:47;;;;;;;19.67;11.73;;;;;;;-4.35;61.11;101324.66;2554912;28;20311;-83
2024/01/10 03:08:02;;;;;;;24.97;12.73;;;;;;;-4.37;61.32;101322.00;2555358;28;20044;-81
2024/01/10 03:09:16;;;;;;;23.90;12.43;;;;;;;-4.36;61.22;101317.78;2566615;28;20362;-81
2024/01/10 03:10:30;;;;;;;20.73;12.60;;;;;;;-4.37;61.01;101322.00;2561424;28;20310;-82
2024/01/10 03:11:44;;;;;;;22.03;13.07;;;;;;;-4.39;61.13;101319.38;2555055;28;20787;-82
2024/01/10 03:12:57;;;;;;;20.00;12.47;;;;;;;-4.38;61.04;101308.41;2554587;28;20037;-83
2024/01/10 03:14:13;;;;;;;21.20;13.37;;;;;;;-4.39;61.27;101313.38;2555195;28;20309;-82
2024/01/10 03:15:27;;;;;;;17.13;10.30;;;;;;;-4.39;61.37;101308.28;2555426;28;20040;-83
2024/01/10 03:16:41;;;;;;;19.67;12.30;;;;;;;-4.38;60.90;101315.16;2555316;28;20737;-83
2024/01/10 03:17:55;;;;;;;18.40;12.20;;;;;;;-4.40;61.41;101307.41;2560128;28;20051;-83
2024/01/10 03:19:09;;;;;;;16.07;11.63;;;;;;;-4.40;61.43;101312.50;2568216;28;20317;-82
2024/01/10 03:20:22;;;;;;;19.50;11.90;;;;;;;-4.41;61.29;101307.34;2555503;28;20052;-82
2024/01/10 03:21:37;;;;;;;20.67;13.90;;;;;;;-4.42;61.18;101297.91;2554863;28;20304;-82
2024/01/10 03:22:50;;;;;;;25.77;11.13;;;;;;;-4.42;60.93;101305.56;2555263;28;20048;-82
2024/01/10 03:24:06;;;;;;;21.47;11.30;;;;;;;-4.43;61.37;101306.34;2555575;28;20310;-82
2024/01/10 03:25:19;;;;;;;20.50;12.00;;;;;;;-4.43;61.43;101301.25;2555320;28;20047;-81
2024/01/10 03:26:33;;;;;;;22.00;10.53;;;;;;;-4.43;61.35;101309.78;2570898;28;20315;-80
2024/01/10 03:27:47;;;;;;;20.10;12.00;;;;;;;-4.43;61.29;101304.69;2556535;28;20406;-81
2024/01/10 03:29:02;;;;;;;19.53;12.60;;;;;;;-4.42;61.08;101303.88;2554667;28;20309;-80
2024/01/10 03:30:18;;;;;;;18.27;12.80;;;;;;;-4.40;61.62;101302.31;2565060;28;20066;-81
2024/01/10 03:31:32;;;;;;;17.93;11.63;;;;;;;-4.39;61.49;101296.47;2560625;28;20346;-82
2024/01/10 03:32:46;;;;;;;22.07;14.30;;;;;;;-4.37;61.51;101301.63;2555037;28;20329;-81
2024/01/10 03:34:00;;;;;;;21.17;12.93;;;;;;;-4.36;61.50;101294.84;2555188;28;20315;-81
2024/01/10 03:35:14;;;;;;;17.03;11.27;;;;;;;-4.35;61.02;101300.06;2555000;28;20048;-81
2024/01/10 03:36:29;;;;;;;21.47;14.07;;;;;;;-4.34;61.34;101301.81;2569064;28;20305;-81
2024/01/10 03:37:42;;;;;;;24.33;13.47;;;;;;;-4.34;61.47;101294.16;2573116;28;20292;-81
2024/01/10 03:38:57;;;;;;;20.00;12.93;;;;;;;-4.30;61.52;101302.91;2554713;28;20307;-81
2024/01/10 03:40:12;;;;;;;21.77;14.13;;;;;;;-4.30;61.18;101298.69;2554406;28;20053;-81
2024/01/10 03:41:26;;;;;;;25.77;12.77;;;;;;;-4.28;61.37;101307.31;2564209;28;20288;-81
2024/01/10 03:42:40;;;;;;;20.83;11.13;;;;;;;-4.28;61.55;101312.41;2565462;28;20304;-80
2024/01/10 03:43:54;;;;;;;20.10;12.40;;;;;;;-4.27;61.15;101301.41;2565299;28;20493;-80
2024/01/10 03:45:08;;;;;;;20.57;12.77;;;;;;;-4.25;61.16;101309.16;2565113;28;20306;-81
2024/01/10 03:46:23;;;;;;;15.30;10.83;;;;;;;-4.26;61.08;101305.75;2564968;28;20298;-81
2024/01/10 03:47:38;;;;;;;23.97;12.37;;;;;;;-4.26;61.52;101308.28;2556676;28;20366;-81
2024/01/10 03:48:52;;;;;;;19.73;11.37;;;;;;;-4.25;61.41;101307.50;2554658;28;20299;-81
2024/01/10 03:50:08;;;;;;;21.97;15.07;;;;;;;-4.24;61.36;101313.47;2558368;28;20786;-81
2024/01/10 03:51:21;;;;;;;20.43;12.73;;;;;;;-4.24;61.45;101311.78;2559307;28;20322;-81
2024/01/10 03:52:36;;;;;;;24.87;12.83;;;;;;;-4.22;61.11;101324.63;2555537;28;20671;-81
2024/01/10 03:53:49;;;;;;;22.77;11.67;;;;;;;-4.23;61.28;101312.69;2554347;28;20493;-80
2024/01/10 03:55:04;;;;;;;28.90;10.13;;;;;;;-4.22;60.96;101311.91;2555663;28;20302;-81
2024/01/10 03:56:18;;;;;;;20.83;11.77;;;;;;;-4.22;61.39;101317.00;2554548;28;20049;-81
2024/01/10 03:57:32;;;;;;;18.63;11.43;;;;;;;-4.22;61.26;101312.75;2555096;28;20281;-80
2024/01/10 03:58:48;;;;;;;25.40;13.10;;;;;;;-4.22;61.37;101311.91;2573430;28;20047;-81
2024/01/10 04:00:03;;;;;;;21.07;12.80;;;;;;;-4.22;61.06;101312.75;2569190;28;20333;-81
2024/01/10 04:01:17;;;;;;;16.13;9.90;;;;;;;-4.23;60.92;101312.69;2554160;28;20643;-81
2024/01/10 04:02:33;;;;;;;22.57;12.13;;;;;;;-4.23;61.41;101318.66;2569123;28;20365;-81
2024/01/10 04:03:46;;;;;;;21.27;10.80;;;;;;;-4.23;61.20;101316.13;2564039;28;20055;-81
2024/01/10 04:05:00;;;;;;;28.60;14.17;;;;;;;-4.22;61.51;101314.44;2559526;28;20309;-81
2024/01/10 04:06:14;;;;;;;18.10;11.20;;;;;;;-4.24;61.36;101321.97;2565033;28;20044;-81
2024/01/10 04:07:28;;;;;;;19.83;13.30;;;;;;;-4.24;61.21;101324.53;2568428;28;20305;-81
2024/01/10 04:08:42;;;;;;;16.70;10.30;;;;;;;-4.26;60.92;101315.94;2557876;28;20049;-81
2024/01/10 04:09:56;;;;;;;21.27;12.27;;;;;;;-4.26;61.50;101318.47;2557072;28;20332;-80
2024/01/10 04:11:10;;;;;;;23.93;12.77;;;;;;;-4.27;61.42;101324.34;2560040;28;20485;-81
2024/01/10 04:12:24;;;;;;;22.10;11.97;;;;;;;-4.26;61.17;101317.56;2566599;28;20305;-80
2024/01/10 04:13:38;;;;;;;24.13;12.43;;;;;;;-4.27;61.14;101319.25;2558483;28;20447;-80
2024/01/10 04:14:52;;;;;;;22.60;12.83;;;;;;;-4.28;61.54;101316.63;2557983;28;20317;-80
2024/01/10 04:16:06;;;;;;;16.67;11.53;;;;;;;-4.29;61.08;101318.25;2575271;28;20040;-81
2024/01/10 04:17:21;;;;;;;18.27;13.10;;;;;;;-4.30;61.37;101308.88;2563125;28;20348;-80
2024/01/10 04:18:36;;;;;;;18.53;12.47;;;;;;;-4.30;61.62;101308.88;2569809;28;20745;-80
2024/01/10 04:19:50;;;;;;;21.30;12.37;;;;;;;-4.30;61.44;101313.09;2557773;28;20302;-80
2024/01/10 04:21:04;;;;;;;20.43;13.33;;;;;;;-4.30;61.10;101308.00;2568062;28;20298;-79
2024/01/10 04:22:18;;;;;;;21.20;12.67;;;;;;;-4.30;61.42;101313.97;2565024;28;20301;-80
2024/01/10 04:23:33;;;;;;;23.40;12.87;;;;;;;-4.29;61.34;101308.06;2560059;28;20041;-80
2024/01/10 04:24:48;;;;;;;19.73;13.87;;;;;;;-4.29;61.39;101314.84;2571404;28;20313;-80
2024/01/10 04:26:02;;;;;;;19.20;11.57;;;;;;;-4.30;61.06;101308.00;2559798;28;20286;-79
2024/01/10 04:27:17;;;;;;;20.70;15.00;;;;;;;-4.32;61.49;101309.56;2564366;28;20389;-79
2024/01/10 04:28:31;;;;;;;17.93;11.07;;;;;;;-4.31;61.17;101309.69;2568503;28;20299;-80
2024/01/10 04:29:45;;;;;;;20.93;11.53;;;;;;;-4.32;61.27;101302.78;2573381;28;20346;-81
2024/01/10 04:30:59;;;;;;;20.20;10.83;;;;;;;-4.33;61.16;101308.69;2560444;28;20051;-82
2024/01/10 04:32:14;;;;;;;17.00;10.67;;;;;;;-4.33;61.59;101302.72;2566506;28;20310;-82
2024/01/10 04:33:27;;;;;;;18.63;12.13;;;;;;;-4.32;61.42;101301.91;2555146;28;20068;-81
2024/01/10 04:34:43;;;;;;;20.87;13.67;;;;;;;-4.33;61.54;101305.28;2555531;28;20302;-82
2024/01/10 04:35:57;;;;;;;24.47;13.03;;;;;;;-4.34;61.38;101304.38;2555162;28;20049;-82
2024/01/10 04:37:11;;;;;;;22.43;14.60;;;;;;;-4.32;61.41;101307.91;2554608;28;20299;-84
2024/01/10 04:38:26;;;;;;;23.40;14.80;;;;;;;-4.33;61.31;101300.16;2555926;28;20044;-83
2024/01/10 04:39:42;;;;;;;19.63;14.57;;;;;;;-4.33;61.19;101295.06;2555991;28;20338;-84
2024/01/10 04:40:56;;;;;;;16.87;11.67;;;;;;;-4.32;61.22;101294.28;2558242;28;20771;-83
2024/01/10 04:42:11;;;;;;;19.50;11.57;;;;;;;-4.32;61.20;101299.38;2566461;28;20297;-83
2024/01/10 04:43:24;;;;;;;18.60;9.30;;;;;;;-4.32;61.19;101301.91;2566268;28;20096;-84
2024/01/10 04:44:39;;;;;;;21.27;10.43;;;;;;;-4.30;61.33;101305.44;2566591;28;20306;-84
2024/01/10 04:45:52;;;;;;;20.47;12.13;;;;;;;-4.31;60.90;101299.47;2564623;28;20304;-84
2024/01/10 04:47:08;;;;;;;23.07;13.57;;;;;;;-4.29;61.26;101302.97;2556372;28;20297;-83
2024/01/10 04:48:22;;;;;;;19.60;12.00;;;;;;;-4.29;61.06;101305.53;2567676;28;20044;-84
2024/01/10 04:49:36;;;;;;;20.20;12.50;;;;;;;-4.26;61.01;101307.38;2561166;28;20271;-84
2024/01/10 04:50:51;;;;;;;28.30;13.87;;;;;;;-4.28;60.95;101307.31;2556478;28;20298;-84
2024/01/10 04:52:06;;;;;;;27.90;14.17;;;;;;;-4.27;61.20;101303.09;2562898;28;20307;-84
2024/01/10 04:53:20;;;;;;;22.20;12.60;;;;;;;-4.26;61.31;101299.75;2560024;28;20282;-84
2024/01/10 04:54:34;;;;;;;18.70;11.63;;;;;;;-4.24;61.35;101308.38;2556035;28;20321;-83
2024/01/10 04:55:48;;;;;;;22.60;12.07;;;;;;;-4.23;61.04;101305.06;2555953;28;20040;-83
2024/01/10 04:57:02;;;;;;;24.67;13.63;;;;;;;-4.24;61.33;101309.25;2556948;28;20321;-83
2024/01/10 04:58:15;;;;;;;19.80;12.10;;;;;;;-4.25;61.23;101309.16;2560821;28;20066;-84
2024/01/10 04:59:30;;;;;;;26.60;15.23;;;;;;;-4.23;61.08;101310.16;2555490;28;20307;-83
2024/01/10 05:00:43;;;;;;;19.40;12.60;;;;;;;-4.23;61.17;101315.25;2555194;28;20609;-84
2024/01/10 05:01:58;;;;;;;22.87;12.40;;;;;;;-4.22;61.19;101310.22;2558806;28;20289;-83
2024/01/10 05:03:11;;;;;;;18.07;12.77;;;;;;;-4.22;61.02;101309.34;2567712;28;20052;-83
2024/01/10 05:04:26;;;;;;;21.97;13.83;;;;;;;-4.21;61.18;101311.09;2554798;28;20299;-83
2024/01/10 05:05:39;;;;;;;20.10;12.60;;;;;;;-4.20;61.24;101310.31;2554995;28;20060;-83
2024/01/10 05:06:55;;;;;;;25.40;13.40;;;;;;;-4.19;61.14;101312.06;2554213;28;20311;-83
2024/01/10 05:08:08;;;;;;;21.93;11.80;;;;;;;-4.19;60.94;101304.44;2555303;28;20041;-83
2024/01/10 05:09:23;;;;;;;20.70;12.20;;;;;;;-4.19;61.46;101306.97;2554909;28;20285;-83
2024/01/10 05:10:36;;;;;;;18.43;11.33;;;;;;;-4.18;61.32;101303.66;2555504;28;20040;-84
2024/01/10 05:11:52;;;;;;;22.37;11.97;;;;;;;-4.19;61.18;101307.84;2555677;28;20744;-82
2024/01/10 05:13:05;;;;;;;21.30;12.10;;;;;;;-4.18;60.96;101303.66;2555262;28;20536;-83
2024/01/10 05:14:21;;;;;;;22.93;11.63;;;;;;;-4.17;61.03;101306.28;2555749;28;20307;-83
2024/01/10 05:15:34;;;;;;;19.37;12.30;;;;;;;-4.18;60.98;101307.09;2555457;28;20051;-83
2024/01/10 05:16:48;;;;;;;20.20;11.10;;;;;;;-4.18;61.45;101296.88;2555209;28;20547;-82
2024/01/10 05:18:02;;;;;;;20.07;13.13;;;;;;;-4.17;60.99;101300.31;2554259;28;20067;-82
2024/01/10 05:19:17;;;;;;;22.97;13.60;;;;;;;-4.15;60.98;101303.84;2555132;28;20311;-83
2024/01/10 05:20:31;;;;;;;18.60;11.67;;;;;;;-4.16;61.14;101307.16;2554121;28;20453;-83
2024/01/10 05:21:46;;;;;;;28.67;12.07;;;;;;;-4.16;61.23;101299.50;2556589;28;20401;-83
2024/01/10 05:23:01;;;;;;;21.20;12.47;;;;;;;-4.15;61.28;101311.50;2555341;28;20291;-83
2024/01/10 05:24:16;;;;;;;23.97;13.37;;;;;;;-4.15;61.06;101311.50;2555844;28;20306;-83
2024/01/10 05:25:29;;;;;;;23.27;11.97;;;;;;;-4.14;60.88;101312.38;2554931;28;20278;-83
2024/01/10 05:26:44;;;;;;;22.00;12.10;;;;;;;-4.15;61.42;101306.41;2555603;28;20306;-83
2024/01/10 05:27:57;;;;;;;19.63;13.90;;;;;;;-4.15;61.34;101305.53;2554619;28;20052;-83
2024/01/10 05:29:11;;;;;;;25.03;12.37;;;;;;;-4.15;61.33;101303.84;2555258;28;20406;-82
2024/01/10 05:30:25;;;;;;;22.73;12.90;;;;;;;-4.14;61.39;101302.16;2554410;28;20040;-81
2024/01/10 05:31:40;;;;;;;21.87;13.07;;;;;;;-4.14;61.25;101299.63;2556435;28;20310;-84
2024/01/10 05:32:53;;;;;;;25.13;14.47;;;;;;;-4.15;61.34;101296.19;2557000;28;20048;-82
2024/01/10 05:34:07;;;;;;;25.83;12.73;;;;;;;-4.14;61.11;101303.03;2563039;28;20281;-83
2024/01/10 05:35:21;;;;;;;18.83;12.13;;;;;;;-4.16;61.11;101294.41;2566568;28;20051;-83
2024/01/10 05:36:35;;;;;;;22.60;12.80;;;;;;;-4.17;61.02;101300.31;2556655;28;20287;-83
2024/01/10 05:37:49;;;;;;;22.10;12.70;;;;;;;-4.19;61.33;101302.75;2557021;28;20071;-83